Time;durP1;ratioP1;P1;durP2;ratioP2;P2;SDS_P1;SDS_P2;PMS_P1;PMS_P2;Temp;Humidity;BMP_temperature;BMP_pressure;BME280_temperature;BME280_humidity;BME280_pressure;Samples;Min_cycle;Max_cycle;Signal;HPM_P1;HPM_P2
2022/01/25 00:15:04;;;;;;;69.78;38.75;;;4.20;99.90;;;;;;4988972;28;20104;-68
2022/01/25 00:27:38;;;;;;;66.55;39.00;;;4.20;99.90;;;;;;4935442;29;20062;-68
2022/01/25 00:30:22;;;;;;;65.80;37.75;;;4.30;99.90;;;;;;4979230;28;20490;-69
2022/01/25 00:32:45;;;;;;;68.68;38.08;;;4.30;99.90;;;;;;4995174;28;20437;-68
2022/01/25 00:35:11;;;;;;;67.47;37.17;;;4.30;99.90;;;;;;4978530;28;20105;-67
2022/01/25 00:37:36;;;;;;;66.05;37.35;;;4.20;99.90;;;;;;4995498;28;20167;-69
2022/01/25 00:40:04;;;;;;;65.53;37.83;;;4.20;99.90;;;;;;4988480;28;20089;-67
2022/01/25 00:42:29;;;;;;;63.40;36.63;;;4.20;99.90;;;;;;4975931;28;20094;-68
2022/01/25 00:44:55;;;;;;;72.68;38.03;;;4.20;99.90;;;;;;4975735;28;20047;-68
2022/01/25 00:47:21;;;;;;;67.32;38.50;;;4.20;99.90;;;;;;4976068;28;20058;-68
2022/01/25 00:49:51;;;;;;;69.10;38.55;;;4.30;99.90;;;;;;5011368;28;20053;-68
2022/01/25 00:52:25;;;;;;;66.28;36.83;;;4.20;99.90;;;;;;5014844;28;20061;-71
2022/01/25 00:54:52;;;;;;;66.55;37.75;;;4.30;99.90;;;;;;5014600;28;20038;-69
2022/01/25 00:57:18;;;;;;;65.32;37.05;;;4.30;99.90;;;;;;4997118;28;20054;-68
2022/01/25 00:59:44;;;;;;;67.00;38.15;;;4.20;99.90;;;;;;5014643;28;20427;-68
2022/01/25 01:02:13;;;;;;;69.97;38.42;;;4.30;99.90;;;;;;5014587;28;20050;-69
2022/01/25 01:04:41;;;;;;;63.70;37.38;;;4.30;99.90;;;;;;4999263;28;20065;-68
2022/01/25 01:07:11;;;;;;;70.88;38.63;;;4.30;99.90;;;;;;5018438;28;20045;-68
2022/01/25 01:09:39;;;;;;;67.85;38.42;;;4.20;99.90;;;;;;5014710;28;20121;-70
2022/01/25 01:12:14;;;;;;;68.53;38.90;;;4.20;99.90;;;;;;5016380;28;20050;-69
2022/01/25 01:15:05;;;;;;;68.38;37.40;;;4.20;99.90;;;;;;5017909;28;20049;-67
2022/01/25 01:34:15;;;;;;;65.43;36.20;;;4.20;99.90;;;;;;5001119;28;20395;-67
2022/01/25 01:37:08;;;;;;;71.93;39.08;;;4.20;99.90;;;;;;5016903;28;20104;-68
2022/01/25 01:39:49;;;;;;;66.75;36.30;;;4.20;99.90;;;;;;5012806;28;20061;-70
2022/01/25 01:42:35;;;;;;;65.97;37.20;;;4.20;99.90;;;;;;5017330;22;20052;-68
2022/01/25 01:47:37;;;;;;;69.50;39.05;;;4.20;99.90;;;;;;5020288;28;20148;-69
2022/01/25 01:50:10;;;;;;;67.90;39.80;;;4.20;99.90;;;;;;5037175;28;20049;-68
2022/01/25 01:52:36;;;;;;;68.73;39.43;;;4.20;99.90;;;;;;5019955;28;20080;-68
2022/01/25 01:55:04;;;;;;;62.20;37.35;;;4.20;99.90;;;;;;5037320;28;20045;-69
2022/01/25 01:57:29;;;;;;;71.18;39.15;;;4.20;99.90;;;;;;5037028;28;20111;-68
2022/01/25 01:59:55;;;;;;;72.25;39.28;;;4.20;99.90;;;;;;5036918;28;20049;-69
2022/01/25 02:02:21;;;;;;;74.03;39.47;;;4.20;99.90;;;;;;5019874;28;20041;-70
2022/01/25 02:04:46;;;;;;;67.90;38.75;;;4.20;99.90;;;;;;5037153;28;20055;-69
2022/01/25 02:07:12;;;;;;;73.72;39.72;;;4.20;99.90;;;;;;5037198;28;20446;-69
2022/01/25 02:09:37;;;;;;;69.20;39.63;;;4.20;99.90;;;;;;5042142;28;20055;-69
2022/01/25 02:12:04;;;;;;;73.25;40.13;;;4.20;99.90;;;;;;5056930;28;20037;-68
2022/01/25 02:14:30;;;;;;;75.05;40.67;;;4.20;99.90;;;;;;5038670;28;20354;-69
2022/01/25 02:17:04;;;;;;;68.07;38.55;;;4.20;99.90;;;;;;5039479;28;20049;-69
2022/01/25 02:22:26;;;;;;;73.90;42.20;;;4.20;99.90;;;;;;5056779;28;20464;-68
2022/01/25 02:24:52;;;;;;;73.47;40.50;;;4.20;99.90;;;;;;5039103;28;20442;-68
2022/01/25 02:27:18;;;;;;;72.10;39.47;;;4.20;99.90;;;;;;5055939;28;20063;-68
2022/01/25 02:29:44;;;;;;;71.55;40.70;;;4.20;99.90;;;;;;5056541;28;20045;-68
2022/01/25 02:32:10;;;;;;;72.35;41.22;;;4.20;99.90;;;;;;5038963;28;20045;-68
2022/01/25 02:34:36;;;;;;;71.30;40.80;;;4.20;99.90;;;;;;5055802;28;20041;-68
2022/01/25 02:37:13;;;;;;;71.70;41.90;;;4.20;99.90;;;;;;5056419;28;20057;-68
2022/01/25 02:39:44;;;;;;;75.50;41.60;;;4.20;99.90;;;;;;5048036;28;20042;-69
2022/01/25 02:42:13;;;;;;;74.57;43.10;;;4.20;99.90;;;;;;5036389;28;20412;-70
2022/01/25 02:44:39;;;;;;;72.72;42.22;;;4.20;99.90;;;;;;5036042;28;20438;-70
2022/01/25 02:49:50;;;;;;;74.72;42.75;;;4.20;99.90;;;;;;5036198;28;20067;-70
2022/01/25 02:52:15;;;;;;;78.05;44.08;;;4.20;99.90;;;;;;5036215;28;20049;-70
2022/01/25 02:54:41;;;;;;;75.63;42.83;;;4.20;99.90;;;;;;5036281;28;20037;-68
2022/01/25 02:57:07;;;;;;;79.32;44.00;;;4.20;99.90;;;;;;5018283;28;20061;-69
2022/01/25 02:59:33;;;;;;;72.55;43.00;;;4.20;99.90;;;;;;5019042;28;20054;-69
2022/01/25 03:01:58;;;;;;;78.95;44.50;;;4.20;99.90;;;;;;5035876;28;20114;-68
2022/01/25 03:04:24;;;;;;;74.28;43.00;;;4.20;99.90;;;;;;5036135;28;20104;-70
2022/01/25 03:06:50;;;;;;;79.88;43.85;;;4.20;99.90;;;;;;5036952;28;20042;-68
2022/01/25 03:09:16;;;;;;;77.60;44.20;;;4.20;99.90;;;;;;5036003;28;20080;-69
2022/01/25 03:11:48;;;;;;;77.35;43.72;;;4.20;99.90;;;;;;5035663;28;20370;-70
2022/01/25 03:14:13;;;;;;;74.63;43.72;;;4.20;99.90;;;;;;5018575;28;20112;-70
2022/01/25 03:16:47;;;;;;;75.93;43.83;;;4.20;99.90;;;;;;5035789;28;20137;-68
2022/01/25 03:22:04;;;;;;;80.57;43.97;;;4.20;99.90;;;;;;5018328;28;20176;-68
2022/01/25 03:24:29;;;;;;;77.93;44.72;;;4.20;99.90;;;;;;5035042;28;20462;-67
2022/01/25 03:26:55;;;;;;;79.78;45.13;;;4.20;99.90;;;;;;5035112;28;20111;-69
2022/01/25 03:29:21;;;;;;;79.00;44.42;;;4.20;99.90;;;;;;5035692;28;20037;-68
2022/01/25 03:31:46;;;;;;;78.20;45.20;;;4.20;99.90;;;;;;5035490;28;20466;-68
2022/01/25 03:34:12;;;;;;;81.53;45.30;;;4.20;99.90;;;;;;5035568;28;20133;-68
2022/01/25 03:36:37;;;;;;;78.90;45.75;;;4.20;99.90;;;;;;5046273;28;20049;-71
2022/01/25 03:39:06;;;;;;;81.78;45.80;;;4.20;99.90;;;;;;5054859;28;20457;-68
2022/01/25 03:41:33;;;;;;;78.93;43.97;;;4.20;99.90;;;;;;5055463;28;20049;-70
2022/01/25 03:43:59;;;;;;;73.47;41.75;;;4.20;99.90;;;;;;5037419;28;20053;-69
2022/01/25 03:46:54;;;;;;;78.65;45.47;;;4.20;99.90;;;;;;5055469;28;20045;-69
2022/01/25 03:52:06;;;;;;;;;;;4.20;99.90;;;;;;5055389;28;20143;-69
2022/01/25 03:54:32;;;;;;;76.47;44.33;;;4.20;99.90;;;;;;5055168;28;19920;-68
2022/01/25 03:56:58;;;;;;;84.40;44.53;;;4.20;99.90;;;;;;5054887;28;20339;-68
2022/01/25 03:59:23;;;;;;;76.85;43.40;;;4.20;99.90;;;;;;5037404;28;20370;-69
2022/01/25 04:01:49;;;;;;;82.90;45.33;;;4.20;99.90;;;;;;5054786;28;20128;-69
2022/01/25 04:04:19;;;;;;;80.35;44.20;;;4.20;99.90;;;;;;5055044;28;20037;-69
2022/01/25 04:06:49;;;;;;;76.97;43.45;;;4.20;99.90;;;;;;5039783;28;20343;-69
2022/01/25 04:09:15;;;;;;;79.68;44.85;;;4.20;99.90;;;;;;5034829;28;20493;-69
2022/01/25 04:11:41;;;;;;;82.55;46.70;;;4.20;99.90;;;;;;5035093;28;20045;-69
2022/01/25 04:14:07;;;;;;;81.78;44.03;;;4.20;99.90;;;;;;5035015;28;20128;-69
2022/01/25 04:16:43;;;;;;;77.38;43.35;;;4.20;99.90;;;;;;5034750;28;20347;-69
2022/01/25 04:19:21;;;;;;;81.53;45.33;;;4.20;99.90;;;;;;5017585;28;20068;-68
2022/01/25 04:24:45;;;;;;;78.07;43.63;;;4.20;99.90;;;;;;5034729;28;20104;-69
2022/01/25 04:27:10;;;;;;;83.00;44.28;;;4.20;99.90;;;;;;5000173;28;20407;-68
2022/01/25 04:29:36;;;;;;;74.30;42.33;;;4.20;99.90;;;;;;5017314;28;20191;-68
2022/01/25 04:32:02;;;;;;;81.43;43.38;;;4.20;99.90;;;;;;5034526;28;20132;-69
2022/01/25 04:53:21;;;;;;;74.10;40.70;;;4.10;99.90;;;;;;5058459;28;20275;-69
2022/01/25 04:58:19;;;;;;;82.13;42.45;;;4.10;99.90;;;;;;5041251;28;20052;-68
2022/01/25 05:00:47;;;;;;;78.28;43.00;;;4.20;99.90;;;;;;5042166;28;20049;-69
2022/01/25 05:03:20;;;;;;;77.82;42.10;;;4.10;99.90;;;;;;5058393;28;20077;-68
2022/01/25 05:06:07;;;;;;;74.10;43.10;;;4.10;99.90;;;;;;5031098;28;20063;-68
2022/01/25 05:08:38;;;;;;;78.07;41.67;;;4.10;99.90;;;;;;5038054;28;20056;-69
2022/01/25 05:11:10;;;;;;;74.20;42.80;;;4.10;99.90;;;;;;5037912;28;20123;-68
2022/01/25 05:13:47;;;;;;;72.88;42.20;;;4.10;99.90;;;;;;5038345;28;20053;-70
2022/01/25 05:16:28;;;;;;;75.18;41.17;;;4.40;99.90;;;;;;5037649;28;20453;-68
2022/01/25 05:19:04;;;;;;;74.78;41.72;;;4.10;99.90;;;;;;5037752;28;20056;-69
2022/01/25 05:24:15;;;;;;;81.00;43.00;;;4.10;99.90;;;;;;5037604;28;20057;-70
2022/01/25 05:26:41;;;;;;;80.65;43.15;;;4.10;99.90;;;;;;5038058;28;20041;-68
2022/01/25 05:29:07;;;;;;;81.25;44.38;;;4.10;99.90;;;;;;5037145;28;20485;-70
2022/01/25 05:31:33;;;;;;;84.10;43.38;;;4.10;99.90;;;;;;5037582;28;20049;-69
2022/01/25 05:33:59;;;;;;;81.65;42.58;;;4.10;99.90;;;;;;5020917;28;20049;-70
2022/01/25 05:36:25;;;;;;;78.45;43.60;;;4.10;99.90;;;;;;5050754;28;20049;-69
2022/01/25 05:38:51;;;;;;;76.93;43.05;;;4.10;99.90;;;;;;5056883;28;20041;-70
2022/01/25 05:41:17;;;;;;;83.00;41.88;;;4.10;99.90;;;;;;5057648;28;20049;-69
2022/01/25 05:44:12;;;;;;;75.07;43.20;;;4.10;99.90;;;;;;5057448;28;20056;-67
2022/01/25 05:47:14;;;;;;;77.68;43.28;;;4.10;99.90;;;;;;5056871;28;20103;-68
2022/01/25 05:49:30;;;;;;;79.40;43.22;;;4.10;99.90;;;;;;5053238;28;20056;-69
2022/01/25 05:51:55;;;;;;;73.20;41.88;;;4.10;99.90;;;;;;5057121;28;20141;-69
2022/01/25 05:54:21;;;;;;;80.00;43.63;;;4.10;99.90;;;;;;5057005;28;20068;-66
2022/01/25 05:56:47;;;;;;;78.20;43.00;;;4.10;99.90;;;;;;5039920;28;20106;-70
2022/01/25 05:59:12;;;;;;;78.20;42.97;;;4.10;99.90;;;;;;5056810;28;20472;-69
2022/01/25 06:01:38;;;;;;;78.63;42.63;;;4.40;99.90;;;;;;5039477;28;20080;-67
2022/01/25 06:04:03;;;;;;;73.05;41.92;;;4.10;99.90;;;;;;5056992;28;20060;-71
2022/01/25 06:06:29;;;;;;;78.55;42.15;;;4.10;99.90;;;;;;5042111;28;20124;-70
2022/01/25 06:08:56;;;;;;;82.32;42.60;;;4.10;99.90;;;;;;5036761;28;20056;-68
2022/01/25 06:11:22;;;;;;;75.22;43.03;;;4.20;99.90;;;;;;5036664;28;20046;-69
2022/01/25 06:13:48;;;;;;;77.18;42.33;;;4.10;99.90;;;;;;5019190;28;20064;-71
2022/01/25 06:16:14;;;;;;;80.60;42.50;;;4.10;99.90;;;;;;5036638;28;20045;-68
2022/01/25 06:18:39;;;;;;;80.65;42.90;;;4.10;99.90;;;;;;5019405;28;20050;-70
2022/01/25 06:21:05;;;;;;;75.57;42.50;;;4.10;99.90;;;;;;5036952;28;20450;-68
2022/01/25 06:23:31;;;;;;;76.15;42.30;;;4.10;99.90;;;;;;5036673;28;20427;-68
2022/01/25 06:25:56;;;;;;;76.85;43.13;;;4.10;99.90;;;;;;5036400;28;20041;-70
2022/01/25 06:28:22;;;;;;;72.45;41.03;;;4.10;99.90;;;;;;5036456;28;20053;-68
2022/01/25 06:30:48;;;;;;;75.32;42.63;;;4.10;99.90;;;;;;5018114;28;20653;-68
2022/01/25 06:33:13;;;;;;;76.93;42.28;;;4.10;99.90;;;;;;5038951;28;20041;-68
2022/01/25 06:35:39;;;;;;;78.70;43.25;;;4.20;99.90;;;;;;5020688;28;20103;-69
2022/01/25 06:38:05;;;;;;;76.68;42.15;;;4.20;99.90;;;;;;5017807;28;20084;-68
2022/01/25 06:40:30;;;;;;;77.88;42.55;;;4.10;99.90;;;;;;5017233;28;20414;-69
2022/01/25 06:42:56;;;;;;;79.05;41.80;;;4.10;99.90;;;;;;5035439;28;20119;-70
2022/01/25 06:45:24;;;;;;;82.57;42.80;;;4.30;99.90;;;;;;5035658;28;20484;-70
2022/01/25 06:47:50;;;;;;;78.97;42.42;;;4.10;99.90;;;;;;5035720;28;20092;-67
2022/01/25 06:50:18;;;;;;;73.20;42.80;;;4.10;99.90;;;;;;5035690;28;20124;-69
2022/01/25 06:52:44;;;;;;;80.25;42.83;;;4.10;99.90;;;;;;5035164;28;20421;-68
2022/01/25 06:55:13;;;;;;;80.05;43.53;;;4.10;99.90;;;;;;5019050;28;20045;-69
2022/01/25 06:57:39;;;;;;;83.13;42.72;;;4.10;99.90;;;;;;5018339;28;20045;-67
2022/01/25 07:00:11;;;;;;;77.50;42.05;;;4.10;99.90;;;;;;5035614;28;20112;-68
2022/01/25 07:02:36;;;;;;;78.28;43.85;;;4.10;99.90;;;;;;5016392;28;20053;-71
2022/01/25 07:05:03;;;;;;;72.13;39.63;;;4.00;99.90;;;;;;5035301;28;20095;-69
2022/01/25 07:07:29;;;;;;;79.40;41.85;;;4.00;99.90;;;;;;5034722;28;20056;-68
2022/01/25 07:09:56;;;;;;;73.93;40.63;;;4.10;99.90;;;;;;5034718;28;20064;-69
2022/01/25 07:12:22;;;;;;;81.20;41.63;;;4.10;99.90;;;;;;5035153;28;20047;-71
2022/01/25 07:14:47;;;;;;;75.72;42.30;;;4.10;99.90;;;;;;5017522;28;20057;-69
2022/01/25 07:17:13;;;;;;;83.90;43.63;;;4.10;99.90;;;;;;5035287;28;20477;-68
2022/01/25 07:19:39;;;;;;;74.78;41.83;;;4.00;99.90;;;;;;5034881;28;20038;-69
2022/01/25 07:22:04;;;;;;;78.95;42.13;;;4.10;99.90;;;;;;5017557;28;20061;-68
2022/01/25 07:24:30;;;;;;;75.03;40.10;;;4.10;99.90;;;;;;5035667;28;20048;-70
2022/01/25 07:26:56;;;;;;;77.80;42.60;;;4.10;99.90;;;;;;5035058;28;20438;-72
2022/01/25 07:29:22;;;;;;;80.60;43.10;;;4.10;99.90;;;;;;5034869;28;20106;-69
2022/01/25 07:31:47;;;;;;;80.35;42.30;;;4.10;99.90;;;;;;5034822;28;20072;-70
2022/01/25 07:34:13;;;;;;;80.25;42.65;;;4.10;99.90;;;;;;5034677;28;20124;-70
2022/01/25 07:36:41;;;;;;;76.80;42.13;;;4.20;99.90;;;;;;5039428;28;20042;-70
2022/01/25 07:39:06;;;;;;;74.28;41.33;;;4.10;99.90;;;;;;5017763;28;20099;-70
2022/01/25 07:41:32;;;;;;;79.53;41.90;;;4.20;99.90;;;;;;5035253;28;20049;-69
2022/01/25 07:43:59;;;;;;;78.72;44.05;;;4.10;99.90;;;;;;5016949;28;20053;-69
2022/01/25 07:46:25;;;;;;;79.85;41.13;;;4.20;99.90;;;;;;5035021;28;20037;-70
2022/01/25 07:48:51;;;;;;;78.68;42.42;;;4.20;99.90;;;;;;5033953;28;20053;-69
2022/01/25 07:51:17;;;;;;;81.80;41.17;;;4.10;99.90;;;;;;5033763;28;20107;-69
2022/01/25 07:53:44;;;;;;;81.60;41.38;;;4.10;99.90;;;;;;5034922;28;20366;-69
2022/01/25 07:56:10;;;;;;;77.50;42.97;;;4.10;99.90;;;;;;5035030;28;20072;-71
2022/01/25 07:58:36;;;;;;;76.78;41.88;;;4.20;99.90;;;;;;5034233;28;20073;-69
2022/01/25 08:01:03;;;;;;;73.95;41.45;;;4.10;99.90;;;;;;5034273;28;20365;-70
2022/01/25 08:03:28;;;;;;;81.82;42.15;;;4.20;99.90;;;;;;5000427;28;20049;-70
2022/01/25 08:05:54;;;;;;;75.47;40.97;;;4.20;99.90;;;;;;5034301;28;20135;-71
2022/01/25 08:08:20;;;;;;;82.00;43.80;;;4.20;99.90;;;;;;5034033;28;20052;-71
2022/01/25 08:10:45;;;;;;;74.93;41.45;;;4.20;99.90;;;;;;5034647;28;20116;-69
2022/01/25 08:13:11;;;;;;;73.65;41.40;;;4.20;99.90;;;;;;5033931;28;20052;-70
2022/01/25 08:15:37;;;;;;;87.22;41.88;;;4.20;99.90;;;;;;5034147;28;20128;-70
2022/01/25 08:18:02;;;;;;;78.00;41.40;;;4.20;99.90;;;;;;5034342;28;20053;-71
2022/01/25 08:20:28;;;;;;;79.97;41.63;;;4.20;99.90;;;;;;5034013;28;20076;-70
2022/01/25 08:22:53;;;;;;;77.28;40.00;;;4.30;99.90;;;;;;5017086;28;20061;-70
2022/01/25 08:25:19;;;;;;;71.38;40.13;;;4.30;99.90;;;;;;5034344;28;20057;-70
2022/01/25 08:27:46;;;;;;;80.25;42.78;;;4.40;99.90;;;;;;5035850;28;20136;-70
2022/01/25 08:30:12;;;;;;;76.70;41.63;;;4.30;99.90;;;;;;5016378;28;20042;-69
2022/01/25 08:32:38;;;;;;;84.97;43.20;;;4.30;99.90;;;;;;5036440;28;20045;-70
2022/01/25 08:35:04;;;;;;;89.15;43.75;;;4.30;99.90;;;;;;5033767;28;20042;-70
2022/01/25 08:37:30;;;;;;;83.90;42.92;;;4.30;99.90;;;;;;5017107;28;20478;-69
2022/01/25 08:39:55;;;;;;;81.15;42.28;;;4.30;99.90;;;;;;5016451;28;20060;-70
2022/01/25 08:42:21;;;;;;;83.13;43.47;;;4.30;99.90;;;;;;5033804;28;20061;-70
2022/01/25 08:44:47;;;;;;;79.00;41.75;;;4.30;99.90;;;;;;5034042;28;20478;-70
2022/01/25 08:47:13;;;;;;;80.43;41.40;;;4.30;99.90;;;;;;5033679;28;20052;-69
2022/01/25 08:49:39;;;;;;;79.60;42.90;;;4.30;99.90;;;;;;5033685;28;20057;-70
2022/01/25 08:52:06;;;;;;;81.93;42.33;;;4.40;99.90;;;;;;5016212;28;20049;-70
2022/01/25 08:54:33;;;;;;;84.78;42.08;;;4.40;99.90;;;;;;5033650;28;20056;-69
2022/01/25 08:56:58;;;;;;;78.45;41.97;;;4.40;99.90;;;;;;5034065;28;20041;-70
2022/01/25 08:59:24;;;;;;;81.38;41.55;;;4.40;99.90;;;;;;5033818;28;20162;-68
2022/01/25 09:01:50;;;;;;;82.70;44.63;;;4.40;99.90;;;;;;5037132;28;20041;-70
2022/01/25 09:04:16;;;;;;;78.28;41.80;;;4.50;99.90;;;;;;5033996;28;20045;-70
2022/01/25 09:06:41;;;;;;;83.05;43.30;;;4.40;99.90;;;;;;5032978;28;20128;-69
2022/01/25 09:09:09;;;;;;;81.35;41.83;;;4.40;99.90;;;;;;5033695;28;20351;-69
2022/01/25 09:11:39;;;;;;;79.90;41.30;;;4.40;99.90;;;;;;5034063;28;20045;-67
2022/01/25 09:14:06;;;;;;;83.03;42.85;;;4.50;99.90;;;;;;5033306;28;20041;-70
2022/01/25 09:16:32;;;;;;;81.80;41.55;;;4.40;99.90;;;;;;5033945;28;20103;-69
2022/01/25 09:18:58;;;;;;;82.80;42.30;;;4.40;99.90;;;;;;5026766;28;20042;-69
2022/01/25 09:21:24;;;;;;;83.50;42.67;;;4.40;99.90;;;;;;5028860;28;20048;-68
2022/01/25 09:23:49;;;;;;;83.90;42.83;;;4.50;99.90;;;;;;5033299;28;20099;-70
2022/01/25 09:26:16;;;;;;;78.18;41.58;;;4.40;99.90;;;;;;5037191;28;20489;-69
2022/01/25 09:28:42;;;;;;;83.10;42.00;;;4.50;99.90;;;;;;5037661;28;20049;-69
2022/01/25 09:31:08;;;;;;;84.43;42.10;;;4.50;99.90;;;;;;5021510;28;20354;-70
2022/01/25 09:33:33;;;;;;;83.65;43.33;;;4.50;99.90;;;;;;5057605;28;20052;-70
2022/01/25 09:35:59;;;;;;;78.70;41.58;;;4.50;99.90;;;;;;5057078;28;20140;-70
2022/01/25 09:38:25;;;;;;;88.00;43.10;;;4.50;99.90;;;;;;5057174;28;20053;-70
2022/01/25 09:40:52;;;;;;;84.15;40.83;;;4.50;99.90;;;;;;5057437;28;20119;-69
2022/01/25 09:43:20;;;;;;;81.18;41.55;;;4.70;99.90;;;;;;5039455;28;20103;-72
2022/01/25 09:45:46;;;;;;;83.55;42.20;;;4.50;99.90;;;;;;5039854;28;20079;-69
2022/01/25 09:48:13;;;;;;;84.63;43.05;;;4.50;99.90;;;;;;5057011;28;20045;-69
2022/01/25 09:50:38;;;;;;;85.88;41.97;;;4.50;99.90;;;;;;5039939;28;20072;-69
2022/01/25 09:53:05;;;;;;;80.55;41.90;;;4.50;99.90;;;;;;5056898;28;20454;-69
2022/01/25 09:55:35;;;;;;;88.35;42.95;;;4.60;99.90;;;;;;5039209;28;20083;-69
2022/01/25 09:58:02;;;;;;;83.03;42.60;;;4.60;99.90;;;;;;5050136;28;20049;-70
2022/01/25 10:00:30;;;;;;;84.35;42.10;;;4.60;99.90;;;;;;5019343;28;20053;-70
2022/01/25 10:03:23;;;;;;;87.80;43.83;;;4.50;99.90;;;;;;5037186;28;20049;-70
2022/01/25 10:05:51;;;;;;;94.65;44.80;;;4.60;99.90;;;;;;5036724;28;20477;-71
2022/01/25 10:08:24;;;;;;;84.85;41.97;;;4.60;99.90;;;;;;5019428;28;20054;-68
2022/01/25 10:10:52;;;;;;;;;;;4.60;99.90;;;;;;5019922;28;20064;-70
2022/01/25 10:13:26;;;;;;;82.70;40.40;;;4.60;99.90;;;;;;5036723;28;19975;-70
2022/01/25 10:16:01;;;;;;;88.65;43.47;;;4.80;99.90;;;;;;5037113;28;20376;-69
2022/01/25 10:18:52;;;;;;;84.07;42.35;;;4.60;99.90;;;;;;5036567;28;20049;-68
2022/01/25 10:21:18;;;;;;;89.53;42.22;;;4.60;99.90;;;;;;5036573;28;20120;-70
2022/01/25 10:23:59;;;;;;;87.57;43.47;;;4.60;99.90;;;;;;5036837;28;20088;-69
2022/01/25 10:26:25;;;;;;;86.57;43.28;;;4.60;99.90;;;;;;5036756;28;20045;-70
2022/01/25 10:28:51;;;;;;;88.70;42.83;;;4.60;99.90;;;;;;5048436;28;20458;-71
2022/01/25 10:31:17;;;;;;;82.65;41.22;;;4.60;99.90;;;;;;5056278;28;20053;-72
2022/01/25 10:33:51;;;;;;;81.72;43.17;;;4.60;99.90;;;;;;5038820;28;20056;-70
2022/01/25 10:36:22;;;;;;;88.03;43.65;;;4.60;99.90;;;;;;5056149;28;20048;-70
2022/01/25 10:38:52;;;;;;;82.30;43.97;;;4.60;99.90;;;;;;5056045;28;20041;-69
2022/01/25 10:41:21;;;;;;;94.78;45.42;;;4.60;99.90;;;;;;5056046;28;20055;-69
2022/01/25 10:43:48;;;;;;;85.53;42.63;;;4.70;99.90;;;;;;5056236;28;20122;-70
2022/01/25 10:46:17;;;;;;;88.28;43.13;;;4.60;99.90;;;;;;5056314;28;20327;-69
2022/01/25 10:48:59;;;;;;;92.68;42.83;;;4.70;99.90;;;;;;5056007;28;20411;-70
2022/01/25 10:51:29;;;;;;;91.60;43.58;;;4.70;99.90;;;;;;5038753;28;20048;-69
2022/01/25 10:54:02;;;;;;;84.65;42.13;;;4.70;99.90;;;;;;5055996;28;20053;-69
2022/01/25 10:56:36;;;;;;;91.07;43.17;;;4.70;99.90;;;;;;5038049;28;20087;-70
2022/01/25 10:59:05;;;;;;;86.20;44.38;;;4.70;99.90;;;;;;5037977;28;20075;-70
2022/01/25 11:01:33;;;;;;;81.70;41.58;;;4.70;99.90;;;;;;5035810;28;20160;-71
2022/01/25 11:04:07;;;;;;;89.25;43.53;;;4.70;99.90;;;;;;5035660;28;20045;-70
2022/01/25 11:06:33;;;;;;;82.32;42.45;;;4.70;99.90;;;;;;5035743;28;20045;-69
2022/01/25 11:09:05;;;;;;;88.22;41.55;;;4.70;99.90;;;;;;5036004;28;20052;-69
2022/01/25 11:11:37;;;;;;;86.35;43.40;;;4.80;99.90;;;;;;5035581;28;20365;-70
2022/01/25 11:16:49;;;;;;;81.25;43.03;;;4.90;99.90;;;;;;5018277;28;20100;-70
2022/01/25 11:19:16;;;;;;;85.47;42.67;;;4.80;99.90;;;;;;5018155;28;20044;-71
2022/01/25 11:21:48;;;;;;;78.78;42.30;;;4.80;99.90;;;;;;5018283;28;20057;-69
2022/01/25 11:24:15;;;;;;;85.00;41.95;;;4.90;99.90;;;;;;5035816;28;20382;-69
2022/01/25 11:26:43;;;;;;;86.70;43.05;;;4.90;99.90;;;;;;5035913;28;20049;-71
2022/01/25 11:29:09;;;;;;;90.38;42.38;;;4.90;99.90;;;;;;5018415;28;20038;-71
2022/01/25 11:31:38;;;;;;;88.30;43.47;;;4.90;99.90;;;;;;5017607;28;20056;-69
2022/01/25 11:34:09;;;;;;;88.82;42.00;;;4.90;99.90;;;;;;5018209;28;20373;-69
2022/01/25 11:36:46;;;;;;;85.78;42.13;;;4.90;99.90;;;;;;5017441;28;20045;-69
2022/01/25 11:39:18;;;;;;;85.72;41.67;;;5.00;99.90;;;;;;5017327;28;20072;-70
2022/01/25 11:41:44;;;;;;;79.17;42.43;;;4.90;99.90;;;;;;5017916;28;20407;-70
2022/01/25 11:44:15;;;;;;;83.75;43.08;;;5.00;99.90;;;;;;5035468;28;20184;-68
2022/01/25 11:46:46;;;;;;;85.63;42.58;;;5.00;99.90;;;;;;5035474;28;20108;-70
2022/01/25 11:49:22;;;;;;;87.10;43.08;;;4.90;99.90;;;;;;5034619;28;20049;-70
2022/01/25 11:52:12;;;;;;;86.20;41.72;;;4.90;99.90;;;;;;5018391;28;20053;-70
2022/01/25 11:54:40;;;;;;;83.00;40.50;;;4.90;99.90;;;;;;5051434;28;20441;-70
2022/01/25 11:57:17;;;;;;;90.63;42.42;;;4.90;99.90;;;;;;5054977;28;20056;-72
2022/01/25 11:59:50;;;;;;;85.85;41.80;;;4.90;99.90;;;;;;5037198;28;20101;-68
2022/01/25 12:02:49;;;;;;;83.72;41.67;;;5.00;99.90;;;;;;5055249;28;20048;-69
2022/01/25 12:05:24;;;;;;;84.88;41.58;;;5.00;99.90;;;;;;5054707;28;20067;-68
2022/01/25 12:08:08;;;;;;;84.32;41.97;;;5.00;99.90;;;;;;5036909;28;20101;-69
2022/01/25 12:10:40;;;;;;;85.03;42.17;;;4.90;99.90;;;;;;5054730;28;20041;-68
2022/01/25 12:13:11;;;;;;;81.93;40.80;;;5.00;99.90;;;;;;5054661;28;20071;-69
2022/01/25 12:15:37;;;;;;;86.57;40.55;;;5.00;99.90;;;;;;5054964;28;20041;-71
2022/01/25 12:18:03;;;;;;;89.05;41.67;;;5.00;99.90;;;;;;5054668;28;20063;-70
2022/01/25 12:20:28;;;;;;;94.95;43.10;;;5.00;99.90;;;;;;5054471;28;20472;-70
2022/01/25 12:23:12;;;;;;;87.30;42.63;;;5.00;99.90;;;;;;5053023;28;20048;-72
2022/01/25 12:25:52;;;;;;;81.15;40.08;;;5.00;99.90;;;;;;5046228;28;20112;-69
2022/01/25 12:28:28;;;;;;;91.07;41.17;;;5.00;99.90;;;;;;5054721;28;20080;-70
2022/01/25 12:31:00;;;;;;;79.72;39.78;;;5.00;99.90;;;;;;5037083;28;20133;-69
2022/01/25 12:33:30;;;;;;;79.35;41.05;;;5.00;99.90;;;;;;5054245;28;20052;-70
2022/01/25 12:36:03;;;;;;;81.40;40.00;;;5.00;99.90;;;;;;5054517;28;20045;-69
2022/01/25 12:38:54;;;;;;;87.30;42.25;;;5.00;99.90;;;;;;5036873;28;20057;-71
2022/01/25 12:41:25;;;;;;;82.93;41.30;;;5.00;99.90;;;;;;5034955;28;20084;-69
2022/01/25 12:43:57;;;;;;;87.20;40.35;;;5.00;99.90;;;;;;5054031;28;20052;-68
2022/01/25 12:46:24;;;;;;;81.93;40.13;;;5.00;99.90;;;;;;5037306;28;20040;-69
2022/01/25 12:48:58;;;;;;;88.18;42.47;;;5.00;99.90;;;;;;5045486;28;20041;-69
2022/01/25 12:51:32;;;;;;;84.78;40.78;;;5.00;99.90;;;;;;5034484;28;20049;-68
2022/01/25 12:54:00;;;;;;;89.95;40.97;;;5.00;99.90;;;;;;5034427;28;20068;-69
2022/01/25 12:56:34;;;;;;;92.07;42.33;;;5.00;99.90;;;;;;5034382;28;20473;-71
2022/01/25 12:59:07;;;;;;;84.95;41.08;;;5.00;99.90;;;;;;5035755;28;20049;-69
2022/01/25 13:01:39;;;;;;;92.78;42.92;;;5.00;99.90;;;;;;5038508;28;20053;-69
2022/01/25 13:04:06;;;;;;;88.25;42.22;;;5.00;99.90;;;;;;5038259;28;20046;-72
2022/01/25 13:06:38;;;;;;;87.35;42.72;;;5.00;99.90;;;;;;5038392;28;20049;-70
2022/01/25 13:09:14;;;;;;;95.07;43.90;;;5.00;99.90;;;;;;5037918;28;20041;-69
2022/01/25 13:17:05;;;;;;;;;;;5.00;99.90;;;;;;5037736;28;20447;-71
2022/01/25 13:19:49;;;;;;;92.57;40.53;;;5.00;99.90;;;;;;5038528;28;20016;-71
2022/01/25 13:22:16;;;;;;;90.72;42.00;;;5.00;99.90;;;;;;5038174;28;20366;-69
2022/01/25 13:27:34;;;;;;;94.57;42.85;;;5.00;99.90;;;;;;5038049;28;20065;-69
2022/01/25 13:32:50;;;;;;;87.30;42.08;;;5.00;99.90;;;;;;5019826;28;20057;-69
2022/01/25 13:35:32;;;;;;;97.30;43.08;;;5.00;99.90;;;;;;5037916;28;20056;-69
2022/01/25 13:38:16;;;;;;;99.07;44.05;;;5.00;99.90;;;;;;5037115;28;20046;-70
2022/01/25 13:46:08;;;;;;;85.60;41.70;;;5.00;99.90;;;;;;5057454;28;20060;-70
2022/01/25 13:48:35;;;;;;;93.63;42.63;;;4.90;99.90;;;;;;5040423;28;20471;-69
2022/01/25 13:51:06;;;;;;;88.72;41.78;;;4.90;99.90;;;;;;5053249;28;20080;-70
2022/01/25 13:53:33;;;;;;;95.57;41.63;;;4.90;99.90;;;;;;5037148;28;20060;-69
2022/01/25 13:56:00;;;;;;;98.88;43.80;;;4.90;99.90;;;;;;5020017;28;20100;-70
2022/01/25 13:58:37;;;;;;;96.13;44.28;;;5.00;99.90;;;;;;5036987;28;20057;-70
2022/01/25 14:01:05;;;;;;;100.95;43.85;;;4.90;99.90;;;;;;5037582;28;20042;-70
2022/01/25 14:03:36;;;;;;;101.32;47.03;;;4.90;99.90;;;;;;5037044;28;20104;-69
2022/01/25 14:06:18;;;;;;;98.32;44.72;;;4.90;99.90;;;;;;5037031;28;20060;-72
2022/01/25 14:08:44;;;;;;;86.63;43.13;;;4.90;99.90;;;;;;5036874;28;20042;-69
2022/01/25 14:11:28;;;;;;;94.47;43.03;;;4.90;99.90;;;;;;5021194;28;20059;-70
2022/01/25 14:24:56;;;;;;;92.88;43.05;;;4.90;99.90;;;;;;5036880;28;20057;-69
2022/01/25 14:27:26;;;;;;;92.25;44.03;;;4.90;99.90;;;;;;5051581;28;20052;-69
2022/01/25 14:29:52;;;;;;;100.75;45.30;;;4.80;99.90;;;;;;5056289;28;20056;-70
2022/01/25 14:32:35;;;;;;;103.40;44.17;;;4.80;99.90;;;;;;5038612;28;20052;-68
2022/01/25 14:35:07;;;;;;;89.43;42.15;;;4.80;99.90;;;;;;5056353;28;20420;-69
2022/01/25 14:37:33;;;;;;;91.00;41.15;;;4.80;99.90;;;;;;5055893;28;20064;-70
2022/01/25 14:40:10;;;;;;;87.65;41.88;;;4.80;99.90;;;;;;5056254;28;20055;-68